Time;durP1;ratioP1;P1;durP2;ratioP2;P2;SDS_P1;SDS_P2;PMS_P1;PMS_P2;Temp;Humidity;BMP_temperature;BMP_pressure;BME280_temperature;BME280_humidity;BME280_pressure;Samples;Min_cycle;Max_cycle;Signal;HPM_P1;HPM_P2
2022/04/30 00:00:58;;;;;;;13.00;10.75;;;11.40;60.90;;;10.37;60.62;96423.59;4868341;28;20386;-63
2022/04/30 00:03:27;;;;;;;10.67;9.33;;;11.50;61.00;;;10.36;61.41;96419.34;4899615;28;20589;-63
2022/04/30 00:05:56;;;;;;;9.70;8.68;;;11.50;61.30;;;10.35;62.19;96419.53;4891687;28;20383;-63
2022/04/30 00:08:23;;;;;;;10.93;9.20;;;11.50;61.30;;;10.34;61.28;96416.09;4871744;28;20360;-63
2022/04/30 00:10:50;;;;;;;11.65;10.07;;;11.60;61.40;;;10.32;61.72;96415.44;4886410;28;20364;-63
2022/04/30 00:13:16;;;;;;;12.27;9.77;;;11.60;61.10;;;10.34;60.57;96412.63;4870756;28;20537;-63
2022/04/30 00:15:42;;;;;;;13.63;10.40;;;11.60;61.40;;;10.32;61.93;96415.44;4883060;28;20723;-63
2022/04/30 00:18:09;;;;;;;11.10;9.85;;;11.60;61.70;;;10.31;62.61;96429.59;4854294;28;20535;-63
2022/04/30 00:20:38;;;;;;;11.30;9.40;;;11.60;62.10;;;10.27;62.26;96428.31;4874240;28;20415;-64
2022/04/30 00:23:19;;;;;;;9.50;8.48;;;11.40;62.20;;;10.22;63.51;96428.03;4887473;28;20301;-63
2022/04/30 00:25:52;;;;;;;10.82;8.63;;;11.40;63.00;;;10.13;63.36;96422.00;4864045;28;20414;-63
2022/04/30 00:28:20;;;;;;;10.35;8.57;;;11.20;63.50;;;10.04;63.25;96417.81;4878298;28;20531;-63
2022/04/30 00:30:46;;;;;;;10.07;8.25;;;11.10;63.90;;;10.00;64.19;96426.25;4867220;28;20208;-63
2022/04/30 00:33:12;;;;;;;12.55;9.02;;;11.20;63.90;;;9.96;62.61;96419.72;4885160;28;20473;-63
2022/04/30 00:35:39;;;;;;;11.25;8.43;;;11.10;63.80;;;9.93;64.05;96420.03;4873160;28;20410;-66
2022/04/30 00:38:05;;;;;;;10.02;8.52;;;11.10;63.80;;;9.91;63.61;96411.50;4885579;28;20446;-63
2022/04/30 00:40:32;;;;;;;12.52;8.38;;;11.10;64.00;;;9.89;64.48;96409.06;4871341;28;20315;-63
2022/04/30 00:42:58;;;;;;;9.60;8.63;;;11.10;64.50;;;9.88;64.22;96406.63;4872805;28;20414;-63
2022/04/30 00:45:24;;;;;;;11.27;8.65;;;11.10;65.00;;;9.87;64.96;96418.94;4886292;28;20484;-63
2022/04/30 00:47:50;;;;;;;11.75;8.90;;;11.10;64.70;;;9.86;64.60;96413.88;4870851;28;20349;-63
2022/04/30 00:50:17;;;;;;;11.90;9.43;;;11.10;64.60;;;9.83;64.91;96410.59;4889448;28;20445;-63
2022/04/30 00:52:47;;;;;;;12.35;8.90;;;11.10;64.90;;;9.80;65.04;96421.47;4884869;28;20435;-63
2022/04/30 00:55:13;;;;;;;11.43;8.38;;;11.10;64.60;;;9.76;65.68;96416.75;4884847;28;20345;-63
2022/04/30 00:57:42;;;;;;;10.73;8.50;;;10.90;64.80;;;9.71;66.10;96417.25;4916237;28;20356;-62
2022/04/30 01:00:09;;;;;;;12.05;9.02;;;10.90;65.10;;;9.68;65.47;96407.09;4875223;28;20771;-63
2022/04/30 01:02:35;;;;;;;11.35;9.32;;;10.80;65.20;;;9.67;65.06;96409.91;4882417;28;20858;-63
2022/04/30 01:05:02;;;;;;;11.95;8.30;;;10.90;65.40;;;9.64;65.61;96405.81;4917337;28;20365;-63
2022/04/30 01:07:29;;;;;;;11.50;8.93;;;10.80;65.50;;;9.62;65.29;96407.00;4871374;28;20463;-63
2022/04/30 01:09:55;;;;;;;10.05;9.07;;;10.80;65.70;;;9.61;66.56;96406.16;4885208;28;20344;-63
2022/04/30 01:12:22;;;;;;;11.90;8.48;;;10.80;66.10;;;9.58;64.86;96414.41;4888986;28;20491;-63
2022/04/30 01:14:51;;;;;;;9.70;8.70;;;10.80;65.60;;;9.56;66.95;96400.63;4903593;28;20325;-65
2022/04/30 01:17:17;;;;;;;11.60;9.57;;;10.80;65.80;;;9.52;66.86;96407.22;4868507;28;20763;-63
2022/04/30 01:19:43;;;;;;;10.82;9.02;;;10.80;66.00;;;9.49;67.14;96402.31;4894003;28;20786;-63
2022/04/30 01:22:14;;;;;;;11.20;8.93;;;10.70;66.10;;;9.44;66.10;96399.38;4921639;28;20650;-63
2022/04/30 01:24:40;;;;;;;11.05;9.13;;;10.70;66.20;;;9.41;66.96;96397.94;4928652;28;20364;-63
2022/04/30 01:27:06;;;;;;;11.40;9.30;;;10.70;66.20;;;9.41;66.20;96399.75;4886125;28;20525;-63
2022/04/30 01:29:33;;;;;;;10.10;8.95;;;10.60;66.30;;;9.40;67.04;96403.34;4869373;28;20356;-62
2022/04/30 01:37:35;;;;;;;11.45;9.25;;;10.60;66.50;;;9.33;66.23;96402.44;4884993;28;20341;-63
2022/04/30 01:40:09;;;;;;;11.60;9.52;;;10.60;67.10;;;9.31;68.94;96399.97;4902391;28;20347;-63
2022/04/30 01:42:42;;;;;;;11.50;9.95;;;10.60;67.00;;;9.29;69.06;96395.91;4902132;28;20407;-63
2022/04/30 01:45:08;;;;;;;11.00;9.82;;;10.60;67.10;;;9.26;67.09;96388.34;4884363;28;20358;-66
2022/04/30 01:47:37;;;;;;;12.35;10.20;;;10.50;67.50;;;9.21;68.28;96389.69;4883841;28;20374;-63
2022/04/30 01:50:04;;;;;;;12.02;9.98;;;10.50;67.30;;;9.19;67.69;96386.41;4882605;28;20407;-63
2022/04/30 01:52:31;;;;;;;14.13;10.55;;;10.40;67.20;;;9.17;67.40;96379.72;4873393;28;20431;-65
2022/04/30 01:54:58;;;;;;;11.60;10.45;;;10.40;67.30;;;9.13;68.02;96376.63;4899619;28;20307;-63
2022/04/30 01:57:27;;;;;;;14.10;11.15;;;10.40;68.00;;;9.13;68.47;96376.63;4869917;28;20435;-63
2022/04/30 01:59:58;;;;;;;11.93;10.70;;;10.30;67.90;;;9.13;69.71;96374.00;4876741;28;20455;-63
2022/04/30 02:02:28;;;;;;;12.35;10.68;;;10.40;67.70;;;9.14;68.59;96373.00;4913454;28;20577;-63
2022/04/30 02:05:00;;;;;;;14.68;11.88;;;10.50;67.80;;;9.11;70.40;96362.84;4944071;28;20037;-62
2022/04/30 02:07:27;;;;;;;13.20;11.18;;;10.40;67.90;;;9.08;68.13;96368.44;4939024;28;20126;-62
2022/04/30 02:09:53;;;;;;;13.50;12.10;;;10.30;67.90;;;9.07;69.11;96358.13;4907551;28;20068;-63
2022/04/30 02:12:19;;;;;;;16.15;12.32;;;10.30;68.20;;;9.07;68.71;96358.13;4924280;28;20359;-64
2022/04/30 02:14:52;;;;;;;14.23;11.90;;;10.40;68.20;;;9.07;69.50;96366.81;4902783;28;20212;-62
2022/04/30 02:17:20;;;;;;;15.63;11.18;;;10.30;67.90;;;9.05;68.49;96358.31;4919076;28;20111;-62
2022/04/30 02:22:31;;;;;;;16.15;12.65;;;10.40;67.80;;;9.02;67.88;96355.19;4948292;28;20514;-62
2022/04/30 02:25:00;;;;;;;15.48;11.82;;;10.20;67.60;;;8.98;69.18;96352.09;4943025;28;20083;-63
2022/04/30 02:27:27;;;;;;;13.40;12.00;;;10.30;67.40;;;8.96;68.67;96343.59;4920644;28;20345;-65
2022/04/30 02:29:53;;;;;;;17.27;12.13;;;10.20;67.50;;;8.96;67.90;96342.78;4881439;28;20372;-65
2022/04/30 02:32:19;;;;;;;13.20;11.90;;;10.20;67.20;;;8.95;68.12;96341.13;4880668;28;20332;-67
2022/04/30 02:34:45;;;;;;;14.80;11.73;;;10.20;66.90;;;8.96;68.58;96348.84;4878528;28;20463;-66
2022/04/30 02:37:14;;;;;;;18.55;11.75;;;10.30;67.10;;;8.96;67.73;96340.97;4890240;28;20642;-63
2022/04/30 02:39:45;;;;;;;12.98;11.68;;;10.30;66.80;;;8.97;69.02;96339.97;4889697;28;20575;-63
2022/04/30 02:42:13;;;;;;;13.80;11.30;;;10.20;67.00;;;8.96;68.27;96338.34;4866358;28;20326;-63
2022/04/30 02:44:39;;;;;;;13.07;11.77;;;10.30;67.10;;;8.94;68.86;96335.06;4898308;28;20325;-63
2022/04/30 02:47:08;;;;;;;14.32;12.30;;;10.30;67.30;;;8.93;68.41;96333.44;4858698;28;20620;-65
2022/04/30 02:49:33;;;;;;;14.20;12.80;;;10.20;67.50;;;8.91;69.71;96332.78;4898912;28;20456;-63
2022/04/30 02:52:00;;;;;;;14.93;12.40;;;10.20;67.80;;;8.92;68.66;96337.06;4875055;28;20510;-63
2022/04/30 02:54:26;;;;;;;13.73;12.30;;;10.20;67.80;;;8.93;69.00;96332.63;4891900;28;20513;-63
2022/04/30 02:56:52;;;;;;;16.13;12.63;;;10.30;67.70;;;8.95;68.40;96331.47;4872674;28;20357;-63
2022/04/30 03:02:03;;;;;;;16.58;12.77;;;10.30;67.50;;;8.91;68.91;96322.31;4878090;28;20359;-63
2022/04/30 03:04:29;;;;;;;16.65;12.68;;;10.30;67.10;;;8.90;68.66;96313.63;4867801;28;20356;-63
2022/04/30 03:06:55;;;;;;;28.75;13.10;;;10.30;67.40;;;8.89;69.29;96311.16;4880425;28;20048;-62
2022/04/30 03:09:21;;;;;;;16.40;12.60;;;10.30;67.30;;;8.85;68.68;96315.94;4871788;28;20379;-63
2022/04/30 03:11:48;;;;;;;14.68;13.18;;;10.20;67.30;;;8.80;69.28;96306.94;4873343;28;20041;-63
2022/04/30 03:14:15;;;;;;;16.30;13.07;;;10.10;67.70;;;8.77;69.17;96296.81;4884759;28;20216;-64
2022/04/30 03:22:10;;;;;;;15.13;13.35;;;9.90;68.40;;;8.63;69.83;96290.50;4880619;28;20227;-64
2022/04/30 03:24:36;;;;;;;15.20;12.85;;;9.90;68.60;;;8.61;69.37;96284.63;4881496;28;20691;-63
2022/04/30 03:27:03;;;;;;;19.38;13.35;;;9.90;68.60;;;8.57;69.86;96291.97;4873185;28;20383;-64
2022/04/30 03:29:30;;;;;;;17.02;13.00;;;9.90;68.60;;;8.52;70.19;96286.44;4894768;28;20506;-67
2022/04/30 03:31:56;;;;;;;15.95;12.95;;;9.80;69.00;;;8.48;70.03;96284.34;4871306;28;20342;-65
2022/04/30 03:34:22;;;;;;;14.32;12.85;;;9.80;68.90;;;8.46;70.28;96287.13;4874969;28;20322;-66
2022/04/30 03:36:48;;;;;;;15.50;12.57;;;9.80;68.90;;;8.44;70.14;96291.72;4871821;28;20423;-67
2022/04/30 03:39:14;;;;;;;13.95;12.40;;;9.80;69.00;;;8.45;70.72;96298.59;4860435;28;20503;-66
2022/04/30 03:41:40;;;;;;;15.65;12.93;;;9.80;69.00;;;8.44;70.06;96293.53;4912657;28;20557;-67
2022/04/30 03:44:07;;;;;;;14.60;13.10;;;9.80;69.10;;;8.38;70.63;96286.38;4888125;28;20376;-66
2022/04/30 03:46:34;;;;;;;16.00;12.57;;;9.70;69.30;;;8.35;70.07;96282.25;4906233;28;20702;-63
2022/04/30 03:49:00;;;;;;;15.13;13.57;;;9.70;69.40;;;8.33;70.89;96288.63;4870840;28;20371;-64
2022/04/30 03:51:26;;;;;;;14.45;12.68;;;9.70;69.20;;;8.33;70.34;96286.00;4904909;28;20533;-63
2022/04/30 03:53:55;;;;;;;15.93;13.70;;;9.60;69.40;;;8.30;70.07;96289.78;4877455;28;20313;-64
2022/04/30 03:56:22;;;;;;;17.23;13.30;;;9.60;69.40;;;8.29;70.24;96296.81;4891478;28;20123;-63
2022/04/30 03:58:48;;;;;;;16.77;13.93;;;9.60;69.30;;;8.31;70.48;96296.66;4910667;28;20507;-63
2022/04/30 04:01:15;;;;;;;18.20;13.55;;;9.70;69.00;;;8.31;70.55;96294.03;4899267;28;20337;-63
2022/04/30 04:03:42;;;;;;;16.10;12.32;;;9.70;68.90;;;8.32;70.45;96295.66;4899728;28;20624;-64
2022/04/30 04:06:09;;;;;;;18.33;13.38;;;9.70;68.90;;;8.35;70.63;96290.13;4871415;28;20388;-63
2022/04/30 04:08:35;;;;;;;15.68;13.00;;;9.80;69.00;;;8.35;70.59;96297.97;4892211;28;20790;-64
2022/04/30 04:11:02;;;;;;;16.65;13.35;;;9.80;69.00;;;8.37;70.86;96306.47;4890914;28;20235;-64
2022/04/30 04:18:57;;;;;;;18.33;14.02;;;9.90;68.90;;;8.42;70.91;96309.44;4892105;28;20440;-63
2022/04/30 04:21:23;;;;;;;14.98;13.38;;;10.00;68.90;;;8.44;71.04;96312.69;4871551;28;20379;-64
2022/04/30 04:26:34;;;;;;;15.45;13.77;;;10.00;69.20;;;8.48;71.16;96318.41;4895943;28;20406;-63
2022/04/30 04:29:00;;;;;;;17.20;13.55;;;10.10;69.10;;;8.51;70.87;96318.88;4875653;28;20451;-64
2022/04/30 04:31:26;;;;;;;18.45;13.50;;;10.10;69.30;;;8.53;71.56;96322.16;4881820;28;20715;-65
2022/04/30 04:33:57;;;;;;;15.40;13.80;;;10.10;69.70;;;8.59;72.98;96323.25;4871010;28;20352;-66
2022/04/30 04:36:23;;;;;;;;;;;10.20;69.80;;;8.62;74.08;96319.50;4905156;28;20446;-68
2022/04/30 04:38:49;;;;;;;43.17;31.92;;;10.20;69.70;;;8.65;71.67;96327.03;4906548;28;20343;-66
2022/04/30 04:41:15;;;;;;;27.10;19.70;;;10.30;70.30;;;8.70;71.37;96329.97;4902620;28;20540;-65
2022/04/30 04:43:42;;;;;;;19.20;16.63;;;10.30;69.40;;;8.75;72.18;96327.63;4885738;28;20533;-66
2022/04/30 04:46:08;;;;;;;17.45;14.77;;;10.40;69.00;;;8.77;71.39;96333.50;4906170;28;20258;-65
2022/04/30 04:48:33;;;;;;;16.30;14.63;;;10.40;69.30;;;8.78;72.65;96335.97;4920363;28;20364;-66
2022/04/30 04:50:59;;;;;;;27.98;20.48;;;10.40;69.20;;;8.83;71.68;96330.22;4889983;28;20353;-65
2022/04/30 04:53:25;;;;;;;29.85;25.75;;;10.50;69.10;;;8.85;72.60;96331.69;4905400;28;20348;-66
2022/04/30 04:55:51;;;;;;;71.18;52.67;;;10.50;69.00;;;8.92;71.60;96326.56;4902744;28;21656;-66
2022/04/30 04:58:18;;;;;;;33.65;25.70;;;10.60;68.60;;;8.94;71.90;96324.56;4918658;28;20297;-65
2022/04/30 05:00:44;;;;;;;30.45;27.25;;;10.60;68.90;;;8.99;72.39;96330.13;4902406;28;20359;-66
2022/04/30 05:03:10;;;;;;;42.97;33.97;;;10.60;68.40;;;9.04;72.18;96327.78;4903732;28;20247;-66
2022/04/30 05:05:36;;;;;;;46.15;39.90;;;10.60;67.90;;;9.09;71.23;96330.72;4884972;28;20340;-65
2022/04/30 05:08:02;;;;;;;33.17;29.48;;;10.70;67.30;;;9.14;70.86;96325.75;4904714;28;20430;-66
2022/04/30 05:10:28;;;;;;;27.15;21.75;;;10.70;66.70;;;9.20;70.63;96335.56;4871351;28;20356;-67
2022/04/30 05:12:54;;;;;;;18.23;14.43;;;10.80;66.60;;;9.26;71.17;96344.53;4870061;28;20359;-66
2022/04/30 05:15:20;;;;;;;16.20;14.55;;;10.90;66.80;;;9.33;70.57;96345.50;4884735;28;20367;-66
2022/04/30 05:17:46;;;;;;;16.08;13.77;;;11.00;66.80;;;9.40;71.15;96345.59;4878558;28;20403;-66
2022/04/30 05:20:13;;;;;;;16.83;13.43;;;11.10;67.20;;;9.44;71.88;96347.69;4878005;28;20479;-66
2022/04/30 05:22:39;;;;;;;23.60;17.42;;;11.20;68.10;;;9.48;72.87;96341.09;4861611;28;20308;-65
2022/04/30 05:25:05;;;;;;;19.27;16.88;;;11.20;68.40;;;9.56;71.84;96345.47;4882299;28;20399;-66
2022/04/30 05:27:31;;;;;;;25.00;19.67;;;11.30;68.00;;;9.61;71.52;96337.88;4866426;28;20329;-66
2022/04/30 05:29:57;;;;;;;20.58;16.05;;;11.40;67.60;;;9.66;72.47;96339.97;4866548;28;20359;-66
2022/04/30 05:32:23;;;;;;;16.25;14.52;;;11.40;67.50;;;9.69;72.66;96337.81;4871124;28;20344;-66
2022/04/30 05:34:50;;;;;;;15.25;13.63;;;11.40;67.20;;;9.73;70.85;96336.47;4869801;28;20395;-65
2022/04/30 05:37:16;;;;;;;17.38;14.93;;;11.50;66.90;;;9.75;72.16;96337.13;4870769;28;20819;-68
2022/04/30 05:39:42;;;;;;;23.10;17.20;;;11.50;67.00;;;9.78;72.40;96343.81;4903387;28;20522;-65
2022/04/30 05:42:08;;;;;;;18.35;15.20;;;11.60;66.60;;;9.80;70.51;96341.84;4905726;28;20777;-65
2022/04/30 05:44:34;;;;;;;16.73;14.75;;;11.60;66.60;;;9.81;71.99;96344.28;4889888;28;20380;-66
2022/04/30 05:47:01;;;;;;;16.85;13.65;;;11.50;66.50;;;9.83;71.65;96347.53;4900801;28;20419;-68
2022/04/30 05:49:27;;;;;;;16.02;14.30;;;11.60;66.20;;;9.86;71.82;96356.06;4886497;28;20726;-66
2022/04/30 05:51:53;;;;;;;18.23;16.35;;;11.60;66.60;;;9.85;71.64;96354.44;4885558;28;20360;-65
2022/04/30 05:54:19;;;;;;;18.85;16.65;;;11.60;66.20;;;9.82;71.67;96335.41;4885064;28;20368;-65
2022/04/30 05:56:45;;;;;;;19.65;17.52;;;11.50;66.70;;;9.86;71.83;96332.41;4891534;28;20317;-65
2022/04/30 05:59:11;;;;;;;18.05;15.13;;;11.60;66.40;;;9.88;71.26;96343.56;4889460;28;20379;-66
2022/04/30 06:01:37;;;;;;;16.02;13.85;;;11.60;65.60;;;9.88;71.12;96359.31;4888586;28;20481;-66
2022/04/30 06:04:04;;;;;;;22.42;17.25;;;11.60;65.70;;;9.89;70.98;96366.22;4884607;28;20156;-68
2022/04/30 06:06:30;;;;;;;20.35;16.52;;;11.60;65.70;;;9.92;71.60;96365.84;4889206;28;20352;-66
2022/04/30 06:08:56;;;;;;;19.10;14.93;;;11.70;65.40;;;9.96;69.83;96369.78;4898706;28;20297;-66
2022/04/30 06:11:22;;;;;;;15.93;14.20;;;11.80;64.70;;;9.99;70.76;96379.94;4886630;28;20250;-66
2022/04/30 06:13:48;;;;;;;16.83;13.48;;;11.90;63.70;;;10.03;70.01;96381.19;4867209;28;20358;-66
2022/04/30 06:16:15;;;;;;;14.55;13.00;;;12.10;62.90;;;10.10;70.07;96374.22;4869250;28;20363;-66
2022/04/30 06:18:41;;;;;;;16.08;13.93;;;12.20;62.80;;;10.13;70.10;96373.88;4869828;28;20765;-66
2022/04/30 06:21:07;;;;;;;20.50;15.85;;;12.10;62.80;;;10.22;68.66;96375.47;4886988;28;20314;-66
2022/04/30 06:23:34;;;;;;;15.75;14.05;;;12.30;63.40;;;10.32;69.05;96373.38;4884502;28;20360;-68
2022/04/30 06:26:00;;;;;;;15.77;13.55;;;12.50;62.20;;;10.43;68.60;96367.69;4897678;28;20474;-66
2022/04/30 06:28:26;;;;;;;16.67;13.43;;;12.70;61.50;;;10.57;68.47;96373.94;4884935;28;20486;-65
2022/04/30 06:30:52;;;;;;;15.90;13.38;;;12.90;60.70;;;10.68;67.27;96356.88;4885151;28;20200;-65
2022/04/30 06:33:18;;;;;;;14.35;12.85;;;13.00;59.70;;;10.81;68.40;96361.47;4890792;28;20339;-66
2022/04/30 06:35:45;;;;;;;16.63;12.85;;;13.10;60.40;;;10.94;67.78;96362.47;4872350;28;20564;-65
2022/04/30 06:38:11;;;;;;;14.80;13.25;;;13.30;59.50;;;11.09;67.21;96365.06;4870557;28;20569;-67
2022/04/30 06:40:37;;;;;;;13.93;12.57;;;13.50;59.50;;;11.25;66.93;96369.28;4914170;28;20368;-67
2022/04/30 06:43:04;;;;;;;15.52;13.05;;;13.70;58.70;;;11.40;66.23;96372.69;4886578;28;20459;-66
2022/04/30 06:45:30;;;;;;;14.85;13.25;;;13.90;57.90;;;11.53;66.33;96372.81;4884470;28;20487;-65
2022/04/30 06:47:56;;;;;;;15.57;13.93;;;14.10;57.30;;;11.68;65.70;96364.03;4907308;28;20493;-65
2022/04/30 06:50:22;;;;;;;15.85;13.95;;;14.20;56.10;;;11.86;65.16;96356.53;4885817;28;20934;-63
2022/04/30 06:58:17;;;;;;;14.48;13.05;;;15.60;51.50;;;12.61;63.09;96361.06;4886628;28;20263;-65
2022/04/30 07:03:27;;;;;;;14.75;11.73;;;16.10;50.90;;;13.18;62.06;96359.94;4892617;28;20474;-65
2022/04/30 07:06:03;;;;;;;14.23;11.80;;;16.70;50.90;;;13.49;61.99;96344.34;4892958;28;20369;-64
2022/04/30 07:08:33;;;;;;;13.27;11.43;;;17.10;48.60;;;13.84;60.97;96346.03;4884113;28;20669;-65
2022/04/30 07:11:00;;;;;;;15.57;11.27;;;17.70;48.60;;;14.13;61.27;96334.22;4914856;28;20855;-64
2022/04/30 07:13:26;;;;;;;11.88;10.68;;;17.80;47.30;;;14.42;59.89;96333.75;4896154;28;20452;-65
2022/04/30 07:15:52;;;;;;;12.18;10.68;;;18.10;47.90;;;14.67;58.77;96328.63;4873729;28;20695;-64
2022/04/30 07:18:18;;;;;;;13.32;10.98;;;18.20;46.50;;;14.91;57.72;96322.63;4900884;28;20576;-64
2022/04/30 07:20:44;;;;;;;12.98;10.60;;;18.40;46.00;;;15.10;57.03;96320.91;4913653;28;20372;-68
2022/04/30 07:23:10;;;;;;;11.52;10.23;;;18.40;46.30;;;15.28;57.23;96331.63;4914792;28;20037;-69
2022/04/30 07:25:36;;;;;;;12.25;10.43;;;18.40;45.60;;;15.40;56.99;96333.63;4932611;28;20255;-64
2022/04/30 07:28:03;;;;;;;12.40;11.10;;;18.40;45.60;;;15.52;55.41;96334.53;4920416;28;20040;-65
2022/04/30 07:30:29;;;;;;;12.80;10.45;;;18.50;43.90;;;15.58;53.76;96336.31;4950241;28;20095;-65
2022/04/30 07:32:54;;;;;;;11.07;10.07;;;18.40;43.60;;;15.67;53.40;96332.44;4945808;28;20044;-64
2022/04/30 07:35:20;;;;;;;11.70;10.30;;;18.50;43.50;;;15.75;53.50;96350.72;4925642;28;20034;-65
2022/04/30 07:37:46;;;;;;;12.43;9.98;;;18.50;43.50;;;15.76;52.96;96339.09;4939829;28;20549;-64
2022/04/30 07:40:12;;;;;;;12.30;10.88;;;18.20;42.80;;;15.78;51.69;96339.69;4944837;28;20030;-64
2022/04/30 07:42:38;;;;;;;14.07;10.02;;;18.40;43.60;;;15.82;52.62;96335.56;4940941;28;20363;-65
2022/04/30 07:45:05;;;;;;;13.50;10.32;;;18.50;43.90;;;15.89;52.11;96336.34;4902991;28;20267;-64
2022/04/30 07:47:30;;;;;;;14.15;11.10;;;18.60;44.00;;;15.91;51.27;96339.59;4947833;28;20068;-63
2022/04/30 07:49:56;;;;;;;11.63;9.98;;;18.40;43.00;;;15.90;50.90;96337.97;4929594;28;20339;-64
2022/04/30 07:52:22;;;;;;;14.55;10.10;;;18.30;44.40;;;15.91;51.75;96339.59;4937584;28;20376;-65
2022/04/30 07:54:48;;;;;;;11.18;10.07;;;18.30;43.70;;;15.95;51.14;96336.50;4958723;28;20368;-65
2022/04/30 07:57:14;;;;;;;12.02;9.93;;;18.40;44.40;;;15.95;51.72;96336.50;4919327;28;20391;-65
2022/04/30 07:59:40;;;;;;;12.50;10.77;;;18.20;45.00;;;15.91;50.96;96334.28;4945449;28;20366;-65
2022/04/30 08:02:05;;;;;;;11.52;10.32;;;18.30;44.60;;;15.91;51.54;96338.78;4949005;28;20444;-65
2022/04/30 08:04:31;;;;;;;11.93;10.65;;;18.30;44.80;;;15.86;51.16;96346.59;4937262;28;20383;-65
2022/04/30 08:06:59;;;;;;;12.25;10.57;;;18.10;45.10;;;15.80;51.09;96348.25;4924982;28;20498;-65
2022/04/30 08:09:25;;;;;;;11.63;10.38;;;17.90;45.10;;;15.73;50.92;96341.38;4950550;28;20468;-65
2022/04/30 08:11:51;;;;;;;11.60;10.25;;;17.70;45.90;;;15.64;51.78;96343.47;4881276;28;20361;-66
2022/04/30 08:14:17;;;;;;;12.50;10.95;;;17.60;46.00;;;15.53;52.30;96338.81;4909458;28;20465;-65
2022/04/30 08:16:43;;;;;;;14.93;10.50;;;17.40;46.60;;;15.51;52.30;96354.13;4889806;28;20406;-66
2022/04/30 08:19:09;;;;;;;14.07;10.90;;;17.40;46.10;;;15.45;51.21;96355.00;4902206;28;20317;-66
2022/04/30 08:21:35;;;;;;;14.07;11.05;;;17.50;46.50;;;15.42;51.38;96355.41;4871219;28;20472;-66
2022/04/30 08:24:02;;;;;;;11.48;10.27;;;17.50;47.00;;;15.39;51.58;96355.81;4870460;28;20459;-64
2022/04/30 08:26:28;;;;;;;11.32;10.10;;;17.30;46.20;;;15.36;52.09;96366.84;4896210;28;20359;-64
2022/04/30 08:28:54;;;;;;;12.30;10.93;;;17.50;46.10;;;15.37;51.15;96373.78;4887813;28;20385;-64
2022/04/30 08:31:20;;;;;;;13.48;10.50;;;17.50;46.50;;;15.42;52.30;96371.31;4870852;28;20371;-64
2022/04/30 08:33:47;;;;;;;10.93;9.90;;;17.60;46.60;;;15.44;52.06;96363.97;4871408;28;20340;-64
2022/04/30 08:36:14;;;;;;;11.52;10.38;;;17.60;46.70;;;15.45;51.45;96368.25;4873702;28;20340;-65
2022/04/30 08:38:40;;;;;;;15.93;10.38;;;17.60;46.90;;;15.45;52.63;96371.72;4872861;28;20326;-64
2022/04/30 08:41:10;;;;;;;13.20;11.07;;;17.60;46.80;;;15.49;52.59;96377.38;4880089;28;20296;-65
2022/04/30 08:43:38;;;;;;;13.23;11.02;;;17.50;46.60;;;15.45;52.40;96382.31;4867639;28;20572;-65
2022/04/30 08:46:04;;;;;;;14.85;12.55;;;17.40;46.70;;;15.48;52.52;96381.06;4853939;28;20452;-64
2022/04/30 08:48:30;;;;;;;13.63;10.95;;;17.60;46.30;;;15.49;51.76;96382.69;4887550;28;20360;-64
2022/04/30 08:50:57;;;;;;;11.23;10.13;;;17.60;47.30;;;15.48;52.35;96381.88;4877481;28;20391;-64
2022/04/30 08:53:23;;;;;;;11.75;10.40;;;17.60;46.90;;;15.47;51.96;96382.91;4875280;28;20219;-63
2022/04/30 08:55:48;;;;;;;12.98;10.07;;;17.50;46.80;;;15.47;52.18;96382.91;4894384;28;20435;-64
2022/04/30 08:58:16;;;;;;;12.10;10.90;;;17.50;47.00;;;15.49;52.69;96383.50;4868955;28;20261;-65
2022/04/30 09:00:44;;;;;;;13.27;11.00;;;17.50;47.20;;;15.51;52.01;96372.69;4886416;28;20403;-66
2022/04/30 09:03:17;;;;;;;13.40;10.63;;;17.60;47.50;;;15.58;53.29;96381.41;4889034;28;20368;-66
2022/04/30 09:05:43;;;;;;;11.80;10.70;;;17.80;47.80;;;15.65;52.53;96376.13;4882292;28;20364;-64
2022/04/30 09:08:09;;;;;;;14.40;10.82;;;17.90;47.90;;;15.75;53.33;96377.25;4895920;28;20185;-64
2022/04/30 09:10:36;;;;;;;11.25;10.07;;;18.00;46.70;;;15.81;51.69;96375.56;4881966;28;20372;-64
2022/04/30 09:13:14;;;;;;;15.05;10.32;;;18.10;46.10;;;15.88;51.74;96373.72;4895268;28;20254;-63
2022/04/30 09:15:44;;;;;;;11.95;10.35;;;18.10;46.20;;;15.86;51.36;96375.78;4865583;28;20360;-64
2022/04/30 09:18:11;;;;;;;12.27;9.95;;;17.90;45.80;;;15.91;52.04;96374.09;4878810;28;20593;-63
2022/04/30 09:20:51;;;;;;;11.77;9.80;;;18.20;46.10;;;16.09;52.38;96373.34;4932956;28;20034;-63
2022/04/30 09:23:31;;;;;;;12.20;10.03;;;18.60;46.30;;;16.22;50.79;96372.41;4928079;28;20064;-63
2022/04/30 09:25:58;;;;;;;11.52;9.73;;;18.60;44.50;;;16.28;51.33;96374.19;4925906;28;20384;-62
2022/04/30 09:28:30;;;;;;;10.25;9.25;;;18.70;45.10;;;16.35;51.16;96382.09;4939530;28;20359;-63
2022/04/30 09:31:18;;;;;;;12.77;10.15;;;18.70;45.00;;;16.37;49.81;96370.25;4927017;28;20144;-63
2022/04/30 09:37:41;;;;;;;11.32;10.15;;;18.40;44.80;;;16.39;50.47;96370.81;4884615;28;20476;-63
2022/04/30 09:39:34;;;;;;;11.52;10.40;;;18.40;43.80;;;16.49;49.88;96367.66;4875666;28;20298;-65
2022/04/30 09:42:01;;;;;;;11.45;10.00;;;18.60;44.70;;;16.59;50.20;96367.97;4883166;28;20390;-65
2022/04/30 09:44:28;;;;;;;13.35;10.80;;;18.80;44.40;;;16.68;49.77;96372.00;4891089;28;20434;-64
2022/04/30 09:46:54;;;;;;;10.45;9.35;;;19.00;44.10;;;16.81;49.90;96365.75;4884888;28;20379;-65
2022/04/30 09:54:51;;;;;;;11.30;10.02;;;19.40;43.10;;;17.08;49.08;96367.06;4897193;28;20211;-65
2022/04/30 09:57:18;;;;;;;11.00;9.85;;;19.30;43.00;;;17.17;48.61;96374.72;4875324;28;20727;-65
2022/04/30 09:59:45;;;;;;;11.57;10.35;;;19.40;42.00;;;17.19;48.08;96367.31;4868079;28;20458;-64
2022/04/30 10:02:11;;;;;;;12.95;10.40;;;19.50;41.70;;;17.25;47.92;96372.59;4885004;28;20830;-64
2022/04/30 10:04:37;;;;;;;12.48;10.02;;;19.60;41.40;;;17.36;48.16;96373.66;4860691;28;20546;-65
2022/04/30 10:07:05;;;;;;;11.57;10.05;;;19.80;42.30;;;17.37;46.95;96373.44;4888269;28;20490;-67
2022/04/30 10:09:34;;;;;;;11.45;9.77;;;19.60;41.30;;;17.38;47.00;96367.06;4897727;28;20064;-65
2022/04/30 10:12:23;;;;;;;15.73;10.82;;;19.60;41.50;;;17.42;46.98;96370.91;4878877;28;20444;-65
2022/04/30 10:15:16;;;;;;;14.85;11.00;;;19.50;42.00;;;17.42;46.62;96370.09;4907438;28;20386;-66
2022/04/30 10:17:45;;;;;;;14.02;11.45;;;19.60;41.70;;;17.44;47.66;96365.38;4896080;28;20046;-64
2022/04/30 10:20:19;;;;;;;15.38;10.73;;;19.60;42.30;;;17.44;46.93;96370.69;4892782;28;20501;-63
2022/04/30 10:22:55;;;;;;;17.23;14.02;;;19.60;41.60;;;17.43;46.62;96371.75;4906483;28;20475;-68
2022/04/30 10:25:46;;;;;;;14.85;13.02;;;19.50;42.40;;;17.43;46.13;96369.09;4892953;28;20359;-66
2022/04/30 10:28:22;;;;;;;13.32;11.95;;;19.40;41.50;;;17.43;46.15;96372.56;4872605;28;20369;-66
2022/04/30 10:31:05;;;;;;;12.35;10.05;;;19.50;41.80;;;17.42;45.99;96375.41;4915275;28;20493;-65
2022/04/30 10:33:35;;;;;;;14.25;12.27;;;19.60;41.70;;;17.43;46.30;96374.41;4859642;28;20414;-67
2022/04/30 10:36:04;;;;;;;12.30;10.57;;;19.60;41.50;;;17.48;46.10;96377.19;4887891;28;20464;-66
2022/04/30 10:38:30;;;;;;;11.77;10.60;;;19.60;41.60;;;17.54;47.07;96376.28;4904961;28;20392;-66
2022/04/30 10:40:58;;;;;;;11.40;10.30;;;19.70;42.20;;;17.64;46.60;96381.84;4880170;28;20288;-66
2022/04/30 10:43:42;;;;;;;11.95;10.65;;;19.90;41.50;;;17.73;46.59;96380.53;4888213;28;20454;-64
2022/04/30 10:46:22;;;;;;;13.23;11.85;;;20.10;41.80;;;17.86;46.09;96378.72;4913377;28;20638;-65
2022/04/30 10:48:48;;;;;;;12.88;11.55;;;20.10;41.00;;;17.96;46.05;96381.66;4918823;28;20442;-65
2022/04/30 10:51:16;;;;;;;11.45;10.02;;;20.40;41.40;;;18.06;46.41;96382.69;4889605;28;20313;-65
2022/04/30 10:53:46;;;;;;;12.32;9.73;;;20.40;41.50;;;18.06;45.62;96376.56;4878169;28;20344;-65
2022/04/30 10:56:13;;;;;;;11.43;9.75;;;20.10;41.60;;;18.00;46.47;96380.16;4883292;28;20568;-65